Bodega Marine Reserve, California Weather observations

Data are for 10 minute period ending at time listed.
 Day   Time   Solar   Ave.   Ave.  Ave.  Vector  Max.   Baro.   Total    
  of    of     Rad.   Air    Rel.  Wind   Wind   Wind  Press.  Precip.   
Year   Day            Temp.  Hum.  Speed  Dir.   Gust                    
2014   (PST)  Kw/m2    F      %     mph   deg.    mph    mb.     in.     
-------------------------------------------------------------------------
 257   20:10   0.00   58.8    91   10.3   298    14.2   1007.1    0.00 
 257   20:20   0.00   58.8    91   10.0   301    14.7   1007.1    0.00 
 257   20:30   0.00   58.9    91    9.2   296    13.2   1007.5    0.00 
 257   20:40   0.00   58.7    91    9.5   301    12.7   1007.5    0.00 
 257   20:50   0.00   58.7    92   10.4   296    14.6   1007.5    0.00 
 257   21:00   0.00   58.7    92   10.1   300    12.6   1007.5    0.00 
 257   21:10   0.00   58.4    92   10.4   304    13.6   1007.1    0.00 
 257   21:20   0.00   58.3    92   10.4   308    13.2   1007.1    0.00 
 257   21:30   0.00   58.4    92    8.7   301    12.9   1007.1    0.00 
 257   21:40   0.00   58.4    92    9.4   298    12.1   1007.5    0.00 
 257   21:50   0.00   58.5    92    9.2   298    11.8   1007.5    0.00 
 257   22:00   0.00   58.5    92    9.6   301    13.1   1007.5    0.00 
 257   22:10   0.00   58.5    92    8.0   301    10.2   1007.5    0.00 
 257   22:20   0.00   58.2    92    8.5   304    10.9   1007.5    0.00 
 257   22:30   0.00   58.1    93    8.6   304    11.3   1007.5    0.00 
 257   22:40   0.00   58.2    93    9.2   304    11.7   1007.5    0.00 
 257   22:50   0.00   58.3    93    9.2   306    12.3   1007.5    0.00 
 257   23:00   0.00   58.4    93    9.6   307    12.3   1007.5    0.00 
 257   23:10   0.00   58.6    92   10.5   311    14.3   1007.5    0.00 
 257   23:20   0.00   58.7    92    9.9   303    12.3   1007.5    0.00 
 257   23:30   0.00   58.5    93    9.7   299    12.3   1007.5    0.00 
 257   23:40   0.00   58.6    93    9.2   297    12.1   1007.8    0.00 
 257   23:50   0.00   58.4    93    8.2   298    11.2   1007.8    0.00 
 258    0:00   0.00   58.4    93    9.1   292    13.7   1007.8    0.00 
 258    0:10   100.00  99999.0   99999  99999.0   99999   99999.0   99999.0   99999.00 
 258    0:20   100.00  99999.0   99999  99999.0   99999   99999.0   99999.0   99999.00 
 258    0:30   100.00  99999.0   99999  99999.0   99999   99999.0   99999.0   99999.00 
 258    0:40   100.00  99999.0   99999  99999.0   99999   99999.0   99999.0   99999.00 
 258    0:50   100.00  99999.0   99999  99999.0   99999   99999.0   99999.0   99999.00 
 258    1:00   100.00  99999.0   99999  99999.0   99999   99999.0   99999.0   99999.00 
 258    1:10   0.00   58.6    93   12.7   299    17.0   1007.8    0.00 
 258    1:20   0.00   58.1    94   12.4   300    17.2   1007.8    0.00 
 258    1:30   0.00   57.8    94   12.9   304    17.2   1007.8    0.00 
 258    1:40   0.00   57.7    95   11.3   309    15.8   1007.8    0.00 
 258    1:50   0.00   57.6    95   10.5   311    15.8   1007.8    0.00 
 258    2:00   0.00   57.6    95    9.6   304    13.4   1007.8    0.00 
 258    2:10   0.00   57.6    95    9.9   312    13.4   1007.8    0.00 
 258    2:20   0.00   57.7    95    9.2   297    13.3   1008.1    0.00 
 258    2:30   0.00   57.6    94    9.2   305    12.9   1007.8    0.00 
 258    2:40   0.00   57.6    94    9.0   303    12.2   1007.8    0.00 
 258    2:50   0.00   57.6    94    9.2   304    13.6   1008.1    0.00 
 258    3:00   0.00   57.6    94    9.7   298    14.5   1008.1    0.00 
 258    3:10   0.00   57.7    94    9.8   304    13.9   1008.1    0.00 
 258    3:20   0.00   57.7    94   10.4   300    14.6   1008.1    0.00 
 258    3:30   0.00   57.7    94    8.4   315    13.7   1008.1    0.00 
 258    3:40   0.00   57.5    94    7.9   312    13.0   1008.1    0.00 
 258    3:50   0.00   57.5    94    9.1   309    12.3   1008.5    0.00 
 258    4:00   0.00   57.5    94    7.9   307    12.1   1008.5    0.00 
 258    4:10   0.00   57.6    94    7.7   298    10.4   1008.5    0.00 
 258    4:20   0.00   57.3    94    6.7   308    10.4   1008.5    0.00 
 258    4:30   0.00   57.3    94    8.7   306    12.5   1008.5    0.00 
 258    4:40   0.00   57.1    94    8.9   307    12.5   1008.5    0.00 
 258    4:50   0.00   57.1    94    8.0   305    10.5   1008.5    0.00 
 258    5:00   0.00   57.3    94    7.4   315    10.3   1008.5    0.00 
 258    5:10   0.00   57.1    94    7.9   315    12.5   1008.5    0.00 
 258    5:20   0.00   56.8    94    6.7   306     9.7   1008.8    0.00 
 258    5:30   0.00   56.7    94    8.1   306    10.7   1008.8    0.00 
 258    5:40   0.00   56.6    94    7.6   312    11.0   1008.8    0.00 
 258    5:50   0.00   56.6    95    9.1   318    11.9   1008.8    0.00 
 258    6:00   0.00   56.6    95    7.6   310    12.9   1009.1    0.00 
 258    6:10   0.00   56.7    95    7.5   300    11.4   1009.1    0.00 
 258    6:20   0.01   56.8    95    8.8   307    13.3   1009.5    0.00 
 258    6:30   0.01   57.1    94    9.4   309    13.6   1009.5    0.00 
 258    6:40   0.01   57.3    94    9.3   307    13.3   1009.5    0.00 
 258    6:50   0.02   57.1    94    8.7   319    12.2   1009.8    0.00 
 258    7:00   0.03   56.8    94    8.3   323    12.7   1009.8    0.00 
 258    7:10   0.04   56.8    94    7.9   324    11.2   1009.8    0.00 
 258    7:20   0.05   56.9    94    7.8   325    10.2   1009.8    0.00 
 258    7:30   0.05   57.1    94    6.8   326     8.8   1009.8    0.00 
 258    7:40   0.07   57.2    94    5.4   328     7.7   1009.8    0.00 
 258    7:50   0.07   57.4    94    6.3   320     8.3   1010.2    0.00 
 258    8:00   0.07   57.8    94    7.7   310    10.0   1010.2    0.00 
 258    8:10   0.08   58.1    93    7.6   305    10.2   1010.5    0.00 
 258    8:20   0.10   58.4    93    8.2   312    12.2   1010.5    0.00 
 258    8:30   0.10   58.5    92    8.3   315    10.4   1010.5    0.00 
 258    8:40   0.10   58.8    92    7.3   312    10.5   1010.5    0.00 
 258    8:50   0.12   58.8    91    6.4   314     9.2   1010.5    0.00 
 258    9:00   0.16   59.1    91    5.8   324     9.1   1010.5    0.00 
 258    9:10   0.20   59.4    90    5.7   319     7.6   1010.5    0.00 
 258    9:20   0.25   59.8    89    4.5   304     6.7   1010.5    0.00 
 258    9:30   0.28   60.0    88    4.0   304     7.3   1010.5    0.00 
 258    9:40   0.32   60.7    87    3.8   298     6.9   1010.5    0.00 
 258    9:50   0.43   61.5    84    4.1   285     7.5   1010.8    0.00 
 258   10:00   0.50   62.0    83    4.1   297     7.0   1010.8    0.00 
 258   10:10   0.65   62.6    81    4.3   316     8.3   1010.8    0.00 
 258   10:20   0.67   63.6    78    4.9   314     7.5   1011.2    0.00 
 258   10:30   0.68   64.3    77    4.3   299     7.5   1011.2    0.00 
 258   10:40   0.70   64.3    76    5.2   298     8.6   1011.2    0.00 
 258   10:50   0.71   64.7    75    4.8   300     8.3   1011.2    0.00 
 258   11:00   0.73   65.6    74    5.1   291     8.1   1011.2    0.00 
 258   11:10   0.74   66.5    72    5.2   279     8.0   1011.2    0.00 
 258   11:20   0.75   65.5    74    7.9   267    10.1   1011.2    0.00 
 258   11:30   0.76   64.9    76    7.4   274     9.2   1011.2    0.00 
 258   11:40   0.76   64.6    77    7.5   276     9.9   1011.2    0.00 
 258   11:50   0.77   64.9    75    6.9   277     9.3   1011.2    0.00 
 258   12:00   0.77   66.3    72    6.8   273     9.4   1011.2    0.00 
 258   12:10   0.77   66.0    73    7.4   273    10.3   1011.2    0.00 
 258   12:20   0.78   66.1    73    7.0   275     9.0   1011.2    0.00 
 258   12:30   0.77   66.7    72    6.8   278     9.3   1011.2    0.00 
 258   12:40   0.77   66.9    71    7.1   278     9.3   1011.2    0.00 
 258   12:50   0.77   66.9    71    6.9   275     9.3   1011.2    0.00 
 258   13:00   0.74   66.6    72    7.3   277     9.6   1011.2    0.00 
 258   13:10   0.75   65.9    74    6.9   287     9.7   1010.8    0.00 
 258   13:20   0.74   66.4    73    7.1   286     9.2   1010.8    0.00 
 258   13:30   0.73   66.7    73    6.8   284     9.3   1010.8    0.00 
 258   13:40   0.72   66.8    74    7.6   286    10.2   1010.8    0.00 
 258   13:50   0.70   67.0    74    7.4   280    10.7   1010.8    0.00 
 258   14:00   0.69   67.3    73    8.1   282    10.9   1010.8    0.00 
 258   14:10   0.67   68.2    71    8.0   277    10.9   1010.8    0.00 
 258   14:20   0.65   67.7    72    9.0   277    11.5   1010.8    0.00 
 258   14:30   0.63   67.8    72    9.9   277    12.3   1010.8    0.00 
 258   14:40   0.61   67.7    73    9.3   276    12.3   1010.5    0.00 
 258   14:50   0.59   67.2    74    9.9   278    12.3   1010.8    0.00 
 258   15:00   0.56   67.4    74    8.5   284    11.5   1010.8    0.00 
 258   15:10   0.54   66.8    76    8.6   288    11.4   1010.8    0.00 
 258   15:20   0.51   66.7    76    8.6   288    11.1   1010.5    0.00 
 258   15:30   0.48   66.6    76    8.2   289    11.5   1010.5    0.00 
 258   15:40   0.46   66.6    77    7.6   283    10.6   1010.5    0.00 
 258   15:50   0.43   66.7    77    8.6   281    11.5   1010.5    0.00 
 258   16:00   0.40   66.7    77    8.2   285    10.9   1010.2    0.00 
 258   16:10   0.37   66.2    78    8.5   284    11.0   1010.2    0.00 
 258   16:20   0.23   66.4    78    7.8   284    10.7   1010.2    0.00 
 258   16:30   0.15   66.3    78    7.3   289    11.0   1010.2    0.00 
 258   16:40   0.23   65.7    80    7.3   290     9.3   1010.2    0.00 
 258   16:50   0.24   65.7    80    7.9   285    10.8   1010.2    0.00 
 258   17:00   0.21   65.4    80    8.2   278    11.2   1010.2    0.00 
 258   17:10   0.16   65.3    81    8.1   280    11.4   1010.2    0.00 
 258   17:20   0.14   64.8    82    8.3   280    11.0   1010.2    0.00 
 258   17:30   0.08   64.4    83    7.4   284    10.4   1010.2    0.00 
 258   17:40   0.03   64.0    84    7.5   287    10.0   1010.2    0.00 
 258   17:50   0.03   63.6    85    5.9   285     8.8   1010.2    0.00 
 258   18:00   0.03   63.1    86    6.0   290     7.8   1009.8    0.00 
 258   18:10   0.02   62.4    88    4.9   308     7.2   1009.8    0.00 
 258   18:20   0.01   61.9    89    5.4   313     7.2   1009.8    0.00 
 258   18:30   0.00   61.3    90    5.7   308     7.7   1009.5    0.00 
 258   18:40   0.00   60.5    91    5.4   308     6.9   1009.5    0.00 
 258   18:50   0.00   60.2    92    5.6   306     7.0   1009.5    0.00 
 258   19:00   0.00   59.9    92    6.1   300     7.1   1009.5    0.00 
 258   19:10   0.00   59.6    93    5.7   303     7.2   1009.5    0.00 
 258   19:20   0.00   59.2    93    4.5   309     6.0   1009.8    0.00 
 258   19:30   0.00   59.6    94    5.3   301     6.7   1009.8    0.00 
 258   19:40   0.00   59.0    94    5.5   309     6.6   1009.8    0.00 
 258   19:50   0.00   59.7    94    6.7   292     8.5   1010.2    0.00 
 258   20:00   0.00   60.0    94    6.0   295     7.8   1010.2    0.00 

Return to Bodega Marine Reserve graphs page.


Western Regional Climate Center,wrcc@dri.edu